Time;durP1;ratioP1;P1;durP2;ratioP2;P2;SDS_P1;SDS_P2;PMS_P1;PMS_P2;Temp;Humidity;BMP_temperature;BMP_pressure;BME280_temperature;BME280_humidity;BME280_pressure;Samples;Min_cycle;Max_cycle;Signal;HPM_P1;HPM_P2
2022/09/14 00:01:17;;;;;;;8.20;2.10;;;;;;;10.90;100.00;100069.81;4820932;29;20871;-96
2022/09/14 00:03:43;;;;;;;5.30;1.80;;;;;;;10.87;100.00;100062.22;4825852;29;20089;-96
2022/09/14 00:06:12;;;;;;;14.98;2.38;;;;;;;10.88;100.00;100063.00;4831399;29;20038;-96
2022/09/14 00:08:39;;;;;;;8.65;2.67;;;;;;;10.90;100.00;100063.69;4833613;29;20067;-96
2022/09/14 00:11:11;;;;;;;5.55;2.70;;;;;;;10.87;100.00;100064.00;4796056;29;20050;-96
2022/09/14 00:13:39;;;;;;;8.38;3.53;;;;;;;10.89;100.00;100075.28;4793728;29;20026;-96
2022/09/14 00:16:11;;;;;;;3.42;2.08;;;;;;;10.83;100.00;100066.13;4791025;29;20043;-96
2022/09/14 00:18:36;;;;;;;4.18;2.20;;;;;;;10.76;100.00;100065.09;4800026;29;20094;-96
2022/09/14 00:21:06;;;;;;;4.40;2.25;;;;;;;10.78;100.00;100071.88;4802313;29;20027;-96
2022/09/14 00:23:35;;;;;;;8.43;1.85;;;;;;;10.75;100.00;100076.66;4803053;29;20070;-96
2022/09/14 00:26:06;;;;;;;6.45;2.67;;;;;;;10.74;100.00;100073.19;4802542;29;20038;-96
2022/09/14 00:28:43;;;;;;;6.03;2.28;;;;;;;10.71;100.00;100068.22;4800670;29;20035;-96
2022/09/14 00:31:10;;;;;;;11.52;2.90;;;;;;;10.78;100.00;100068.44;4806216;29;20042;-96
2022/09/14 00:33:37;;;;;;;8.40;2.22;;;;;;;10.79;100.00;100062.16;4821413;29;20034;-96
2022/09/14 00:36:12;;;;;;;8.23;2.50;;;;;;;10.86;100.00;100063.16;4801063;29;20042;-96
2022/09/14 00:38:40;;;;;;;7.68;2.45;;;;;;;10.90;100.00;100064.53;4801591;29;20030;-96
2022/09/14 00:41:12;;;;;;;13.68;2.63;;;;;;;10.92;100.00;100061.72;4795303;29;20038;-96
2022/09/14 00:43:56;;;;;;;6.15;2.78;;;;;;;10.91;100.00;100062.69;4788488;29;20035;-96
2022/09/14 00:46:23;;;;;;;9.23;3.05;;;;;;;10.92;100.00;100059.09;4804818;29;20066;-96
2022/09/14 00:48:49;;;;;;;11.82;3.33;;;;;;;10.86;100.00;100057.88;4818790;29;20038;-96
2022/09/14 00:51:17;;;;;;;10.43;4.50;;;;;;;10.92;100.00;100069.66;4817035;29;20042;-96
2022/09/14 00:53:44;;;;;;;7.38;4.18;;;;;;;10.90;100.00;100051.31;4815245;29;20070;-96
2022/09/14 00:56:11;;;;;;;11.93;4.25;;;;;;;10.91;100.00;100042.38;4799540;29;20065;-96
2022/09/14 00:58:42;;;;;;;7.40;3.65;;;;;;;10.94;100.00;100059.75;4813143;29;20030;-96
2022/09/14 01:01:13;;;;;;;9.98;4.00;;;;;;;10.91;100.00;100046.84;4829616;29;20045;-96
2022/09/14 01:03:40;;;;;;;9.90;4.63;;;;;;;10.88;100.00;100055.09;4813681;29;20034;-96
2022/09/14 01:06:38;;;;;;;10.88;4.80;;;;;;;10.89;100.00;100043.53;4808845;29;20079;-96
2022/09/14 01:09:30;;;;;;;12.35;4.28;;;;;;;10.86;100.00;100054.44;4838961;29;20037;-96
2022/09/14 01:12:09;;;;;;;10.60;4.35;;;;;;;10.85;100.00;100050.09;4839269;29;20041;-96
2022/09/14 01:14:55;;;;;;;7.53;3.90;;;;;;;10.85;100.00;100044.81;4845077;29;20045;-96
2022/09/14 01:17:48;;;;;;;7.93;4.03;;;;;;;10.82;100.00;100034.56;4828879;29;20046;-96
2022/09/14 01:20:25;;;;;;;7.93;4.47;;;;;;;10.91;100.00;100050.31;4827754;29;20038;-96
2022/09/14 01:23:02;;;;;;;9.52;4.65;;;;;;;10.95;100.00;100050.84;4817265;29;20037;-90
2022/09/14 01:25:38;;;;;;;17.27;5.82;;;;;;;10.93;100.00;100034.28;4822879;29;20046;-91
2022/09/14 01:28:14;;;;;;;11.90;5.30;;;;;;;10.95;100.00;100021.75;4827404;29;20074;-91
2022/09/14 01:30:41;;;;;;;;;;;;;;;10.88;100.00;100020.72;4828231;29;20033;-91
2022/09/14 01:33:21;;;;;;;18.17;6.78;;;;;;;10.92;100.00;100014.13;4832955;29;19991;-96
2022/09/14 01:35:58;;;;;;;12.80;6.13;;;;;;;10.94;100.00;100021.91;4823013;29;20037;-96
2022/09/14 01:38:37;;;;;;;14.80;6.43;;;;;;;10.93;100.00;100029.00;4838079;29;20042;-96
2022/09/14 01:41:10;;;;;;;10.73;5.93;;;;;;;10.84;100.00;100033.44;4829122;29;20050;-96
2022/09/14 01:43:54;;;;;;;11.32;5.65;;;;;;;10.76;100.00;100031.56;4848842;29;20026;-96
2022/09/14 01:46:42;;;;;;;15.75;4.68;;;;;;;10.64;100.00;100030.97;4845687;23;20024;-92
2022/09/14 01:49:15;;;;;;;8.85;4.35;;;;;;;10.48;100.00;100044.91;4803865;29;20141;-93
2022/09/14 01:51:46;;;;;;;13.10;4.15;;;;;;;10.39;100.00;100046.63;4822948;29;20077;-92
2022/09/14 01:54:22;;;;;;;8.50;3.60;;;;;;;10.32;100.00;100048.22;4823693;29;20041;-93
2022/09/14 01:56:56;;;;;;;8.32;3.63;;;;;;;10.29;100.00;100061.72;4820888;29;20044;-92
2022/09/14 01:59:25;;;;;;;14.02;3.63;;;;;;;10.28;100.00;100060.09;4827048;29;20053;-92
2022/09/14 02:01:56;;;;;;;14.63;4.20;;;;;;;10.28;100.00;100055.63;4836492;24;20052;-96
2022/09/14 02:04:43;;;;;;;12.60;3.95;;;;;;;10.33;100.00;100056.97;4832702;29;20123;-95
2022/09/14 02:07:10;;;;;;;11.15;4.90;;;;;;;10.35;100.00;100055.84;4831094;29;20056;-95
2022/09/14 02:09:37;;;;;;;11.52;4.97;;;;;;;10.45;100.00;100050.47;4875518;29;20041;-94
2022/09/14 02:12:03;;;;;;;10.90;4.25;;;;;;;10.52;100.00;100048.09;4863064;29;20076;-95
2022/09/14 02:14:30;;;;;;;8.55;3.45;;;;;;;10.58;100.00;100043.97;4875128;29;20040;-95
2022/09/14 02:16:56;;;;;;;14.10;3.58;;;;;;;10.61;100.00;100043.66;4861247;29;20041;-95
2022/09/14 02:19:24;;;;;;;9.95;3.67;;;;;;;10.67;100.00;100045.72;4844509;29;20060;-96
2022/09/14 02:21:50;;;;;;;11.00;3.67;;;;;;;10.71;100.00;100048.88;4858385;29;20076;-96
2022/09/14 02:24:16;;;;;;;8.93;3.22;;;;;;;10.74;100.00;100053.84;4837891;29;20465;-95
2022/09/14 02:26:43;;;;;;;7.55;2.90;;;;;;;10.78;100.00;100052.56;4863943;29;20037;-96
2022/09/14 02:29:09;;;;;;;9.30;3.25;;;;;;;10.86;100.00;100051.78;4833498;29;20040;-95
2022/09/14 02:31:54;;;;;;;13.13;3.00;;;;;;;10.87;100.00;100051.63;4849321;29;20044;-95
2022/09/14 02:34:37;;;;;;;14.43;3.00;;;;;;;10.87;100.00;100042.84;4861447;29;20041;-95
2022/09/14 02:37:12;;;;;;;8.85;2.60;;;;;;;10.89;100.00;100040.91;4848812;29;20049;-95
2022/09/14 02:39:44;;;;;;;11.40;3.50;;;;;;;10.93;100.00;100047.53;4862544;29;20143;-96
2022/09/14 02:42:20;;;;;;;9.52;3.00;;;;;;;11.03;100.00;100047.41;4848877;29;20124;-95
2022/09/14 02:44:55;;;;;;;16.25;2.95;;;;;;;11.04;100.00;100043.78;4859371;29;20048;-96
2022/09/14 02:47:43;;;;;;;11.65;3.05;;;;;;;11.06;100.00;100038.31;4848926;29;20041;-96
2022/09/14 02:50:23;;;;;;;9.15;2.72;;;;;;;11.03;100.00;100035.03;4866186;29;21449;-96
2022/09/14 02:52:58;;;;;;;9.90;2.92;;;;;;;10.95;100.00;100037.63;4861242;29;20123;-95
2022/09/14 02:55:29;;;;;;;12.45;3.20;;;;;;;10.95;100.00;100047.38;4863799;29;20132;-95
2022/09/14 02:58:05;;;;;;;14.32;2.83;;;;;;;10.94;100.00;100043.06;4863818;29;20053;-96
2022/09/14 03:00:35;;;;;;;13.25;3.63;;;;;;;10.94;100.00;100046.53;4856860;29;20157;-95
2022/09/14 03:03:05;;;;;;;19.33;3.75;;;;;;;10.85;100.00;100034.25;4874650;29;20037;-95
2022/09/14 03:05:31;;;;;;;7.68;3.22;;;;;;;10.85;100.00;100048.31;4882469;29;20490;-96
2022/09/14 03:07:58;;;;;;;16.83;3.10;;;;;;;10.82;100.00;100042.50;4869058;29;20040;-95
2022/09/14 03:10:25;;;;;;;16.88;3.28;;;;;;;10.78;100.00;100045.44;4900523;29;20063;-96
2022/09/14 03:12:51;;;;;;;16.50;3.28;;;;;;;10.77;100.00;100042.97;4857792;29;20477;-95
2022/09/14 03:15:17;;;;;;;11.75;3.28;;;;;;;10.78;100.00;100042.00;4889235;29;20047;-96
2022/09/14 03:17:50;;;;;;;11.95;3.10;;;;;;;10.83;100.00;100038.88;4885156;29;20044;-95
2022/09/14 03:20:22;;;;;;;9.05;2.50;;;;;;;10.85;100.00;100040.38;4866368;29;20048;-96
2022/09/14 03:22:48;;;;;;;11.02;3.33;;;;;;;10.83;100.00;100028.31;4849782;29;20121;-94
2022/09/14 03:25:15;;;;;;;10.88;3.25;;;;;;;10.86;100.00;100042.03;4878770;29;20136;-93
2022/09/14 03:27:41;;;;;;;8.35;2.85;;;;;;;10.83;100.00;100041.53;4869499;29;20038;-93
2022/09/14 03:30:07;;;;;;;12.40;3.25;;;;;;;10.84;100.00;100043.16;4885132;29;20032;-92
2022/09/14 03:32:36;;;;;;;17.15;3.50;;;;;;;10.79;100.00;100035.72;4882147;29;20127;-93
2022/09/14 03:35:02;;;;;;;13.88;3.13;;;;;;;10.75;100.00;100031.72;4869432;29;20123;-93
2022/09/14 03:37:28;;;;;;;16.23;2.97;;;;;;;10.77;100.00;100037.66;4900090;29;20028;-93
2022/09/14 03:39:53;;;;;;;14.27;3.22;;;;;;;10.79;100.00;100043.63;4868673;29;20457;-93
2022/09/14 03:42:19;;;;;;;12.13;2.55;;;;;;;10.78;100.00;100037.50;4869665;29;20494;-93
2022/09/14 03:44:45;;;;;;;16.02;2.13;;;;;;;10.80;100.00;100032.06;4869497;29;20043;-95
2022/09/14 03:47:11;;;;;;;10.30;1.90;;;;;;;10.81;100.00;100032.91;4872605;29;20494;-95
2022/09/14 03:49:37;;;;;;;17.55;2.03;;;;;;;10.76;100.00;100033.38;4883705;29;20047;-95
2022/09/14 03:52:03;;;;;;;16.70;2.15;;;;;;;10.70;100.00;100031.34;4883141;29;20414;-95
2022/09/14 03:54:29;;;;;;;13.68;2.30;;;;;;;10.65;100.00;100023.91;4860781;29;20127;-95
2022/09/14 03:56:55;;;;;;;7.47;1.88;;;;;;;10.62;100.00;100030.31;4884319;29;20620;-95
2022/09/14 03:59:20;;;;;;;14.57;2.28;;;;;;;10.57;100.00;100032.59;4869475;29;20569;-95
2022/09/14 04:01:46;;;;;;;11.05;1.80;;;;;;;10.53;100.00;100034.72;4863149;29;20049;-95
2022/09/14 04:04:12;;;;;;;11.05;1.88;;;;;;;10.49;100.00;100033.38;4880694;29;20041;-95
2022/09/14 04:06:38;;;;;;;15.65;2.22;;;;;;;10.50;100.00;100039.47;4869135;29;20040;-95
2022/09/14 04:09:04;;;;;;;10.55;2.58;;;;;;;10.50;100.00;100034.19;4858329;29;20040;-96
2022/09/14 04:11:30;;;;;;;13.70;2.40;;;;;;;10.52;100.00;100030.44;4894819;29;20033;-96
2022/09/14 04:14:03;;;;;;;11.32;2.30;;;;;;;10.64;100.00;100028.34;4854423;29;20048;-96
2022/09/14 04:16:29;;;;;;;9.00;1.95;;;;;;;10.60;100.00;100023.53;4853047;29;20859;-96
2022/09/14 04:18:55;;;;;;;18.48;1.90;;;;;;;10.61;100.00;100020.72;4865986;29;20041;-96
2022/09/14 04:21:24;;;;;;;13.82;1.92;;;;;;;10.60;100.00;100015.59;4868822;29;20041;-95
2022/09/14 04:23:54;;;;;;;13.32;2.45;;;;;;;10.57;100.00;100010.63;4867870;29;20032;-96
2022/09/14 04:26:22;;;;;;;8.35;2.20;;;;;;;10.56;100.00;100011.63;4861077;29;20089;-96
2022/09/14 04:28:48;;;;;;;12.63;3.22;;;;;;;10.58;100.00;100010.47;4868158;29;20099;-96
2022/09/14 04:31:14;;;;;;;11.98;3.10;;;;;;;10.60;100.00;100010.31;4884208;29;20044;-96
2022/09/14 04:33:44;;;;;;;10.95;2.97;;;;;;;10.65;100.00;100013.31;4899388;29;20024;-96
2022/09/14 04:36:13;;;;;;;18.52;2.95;;;;;;;10.76;100.00;100022.81;4866116;29;20136;-95
2022/09/14 04:38:40;;;;;;;8.82;2.33;;;;;;;10.82;100.00;100018.69;4877782;29;20037;-96
2022/09/14 04:41:08;;;;;;;13.40;2.88;;;;;;;10.90;100.00;100013.47;4878271;29;20633;-96
2022/09/14 04:43:35;;;;;;;11.98;2.42;;;;;;;10.89;100.00;100017.09;4885821;29;20104;-96
2022/09/14 04:46:15;;;;;;;10.45;2.38;;;;;;;10.95;100.00;100005.06;4883400;29;20040;-96
2022/09/14 04:48:41;;;;;;;11.40;2.45;;;;;;;10.99;100.00;100004.56;4883421;29;20048;-95
2022/09/14 04:51:12;;;;;;;13.32;2.33;;;;;;;11.03;100.00;100008.59;4881973;29;20375;-96
2022/09/14 04:53:42;;;;;;;12.85;2.65;;;;;;;10.99;100.00;100009.88;4868918;29;20043;-96
2022/09/14 04:56:11;;;;;;;12.32;2.83;;;;;;;10.92;100.00;100006.22;4865054;29;20065;-96
2022/09/14 04:58:41;;;;;;;11.27;2.30;;;;;;;10.87;100.00;100000.56;4883135;29;20057;-95
2022/09/14 05:01:09;;;;;;;12.90;2.30;;;;;;;10.95;100.00;100012.97;4870752;29;20059;-95
2022/09/14 05:03:39;;;;;;;9.27;2.55;;;;;;;10.92;100.00;99998.28;4882721;29;20032;-96
2022/09/14 05:06:10;;;;;;;12.20;2.20;;;;;;;10.88;100.00;100010.13;4849971;29;20041;-95
2022/09/14 05:08:37;;;;;;;7.35;1.90;;;;;;;10.83;100.00;99997.38;4880374;29;20037;-95
2022/09/14 05:11:05;;;;;;;19.02;3.15;;;;;;;10.82;100.00;100003.66;4891755;29;20104;-96
2022/09/14 05:13:34;;;;;;;14.50;2.97;;;;;;;10.82;100.00;100005.47;4862061;29;20040;-95
2022/09/14 05:16:33;;;;;;;11.50;1.90;;;;;;;10.79;100.00;100004.00;4875041;29;20037;-95
2022/09/14 05:19:02;;;;;;;7.32;2.45;;;;;;;10.78;100.00;100011.06;4881914;29;20049;-96
2022/09/14 05:21:31;;;;;;;12.25;3.58;;;;;;;10.78;100.00;100002.34;4868552;29;20358;-95
2022/09/14 05:23:59;;;;;;;11.65;2.60;;;;;;;10.82;100.00;100000.19;4870989;29;20040;-94
2022/09/14 05:26:27;;;;;;;18.15;2.47;;;;;;;10.90;100.00;100008.16;4866176;29;20036;-95
2022/09/14 05:28:56;;;;;;;9.88;2.00;;;;;;;10.88;100.00;100010.13;4866752;29;20040;-95
2022/09/14 05:31:22;;;;;;;7.78;1.98;;;;;;;10.85;100.00;100011.28;4881570;29;20045;-95
2022/09/14 05:33:49;;;;;;;11.45;2.45;;;;;;;10.84;100.00;100009.63;4852496;29;20045;-95
2022/09/14 05:36:15;;;;;;;8.52;1.80;;;;;;;10.73;100.00;100012.53;4870524;29;20048;-95
2022/09/14 05:38:41;;;;;;;8.80;1.85;;;;;;;10.70;100.00;100010.22;4892638;29;20037;-95
2022/09/14 05:41:10;;;;;;;13.27;2.00;;;;;;;10.68;100.00;100007.72;4871141;29;20041;-95
2022/09/14 05:43:36;;;;;;;16.77;2.17;;;;;;;10.65;100.00;99997.47;4883566;29;20032;-96
2022/09/14 05:46:08;;;;;;;10.10;1.88;;;;;;;10.64;100.00;99998.44;4867710;29;20135;-95
2022/09/14 05:48:36;;;;;;;8.38;2.15;;;;;;;10.62;100.00;100001.22;4868216;29;20076;-95
2022/09/14 05:51:16;;;;;;;10.50;1.85;;;;;;;10.64;100.00;100004.56;4882678;29;20044;-95
2022/09/14 05:53:46;;;;;;;8.13;1.95;;;;;;;10.69;100.00;100019.13;4868009;29;20096;-95
2022/09/14 05:56:13;;;;;;;11.90;1.95;;;;;;;10.70;100.00;100016.34;4867465;29;20037;-96
2022/09/14 05:58:40;;;;;;;6.82;1.63;;;;;;;10.71;100.00;100017.16;4851219;29;20044;-96
2022/09/14 06:01:18;;;;;;;7.18;1.50;;;;;;;10.71;100.00;100023.28;4882616;29;20112;-95
2022/09/14 06:03:44;;;;;;;10.57;2.17;;;;;;;10.71;100.00;100020.63;4865816;29;20044;-93
2022/09/14 06:06:13;;;;;;;7.03;1.58;;;;;;;10.71;100.00;100020.63;4869953;29;20076;-94
2022/09/14 06:08:39;;;;;;;4.88;1.42;;;;;;;10.66;100.00;100017.63;4882219;29;20047;-93
2022/09/14 06:11:08;;;;;;;6.03;1.23;;;;;;;10.60;100.00;100020.88;4881664;29;20044;-93
2022/09/14 06:13:35;;;;;;;3.22;1.10;;;;;;;10.60;100.00;100023.53;4851562;29;20036;-93
2022/09/14 06:16:15;;;;;;;6.43;1.20;;;;;;;10.63;100.00;100021.41;4894257;29;20074;-93
2022/09/14 06:18:43;;;;;;;2.95;1.15;;;;;;;10.66;100.00;100026.38;4861006;29;20040;-93
2022/09/14 06:21:11;;;;;;;7.35;1.38;;;;;;;10.69;100.00;100035.81;4865045;29;20044;-95
2022/09/14 06:23:37;;;;;;;5.50;2.30;;;;;;;10.73;100.00;100045.09;4881509;29;20075;-95
2022/09/14 06:26:04;;;;;;;9.30;2.55;;;;;;;10.74;100.00;100043.28;4865911;29;20135;-94
2022/09/14 06:28:32;;;;;;;4.28;1.63;;;;;;;10.75;100.00;100052.88;4866386;29;20040;-93
2022/09/14 06:31:03;;;;;;;5.40;2.28;;;;;;;10.79;100.00;100048.94;4850033;29;20409;-93
2022/09/14 06:33:30;;;;;;;7.97;2.45;;;;;;;10.85;100.00;100055.41;4867699;29;20033;-93
2022/09/14 06:36:08;;;;;;;8.93;2.40;;;;;;;10.82;100.00;100048.63;4885611;29;20045;-93
2022/09/14 06:38:35;;;;;;;4.85;2.42;;;;;;;10.87;100.00;100056.06;4864307;29;20044;-94
2022/09/14 06:41:13;;;;;;;7.82;2.35;;;;;;;10.83;100.00;100044.97;4874330;29;20037;-96
2022/09/14 06:43:41;;;;;;;4.80;2.55;;;;;;;10.82;100.00;100059.19;4878871;29;20481;-96
2022/09/14 06:46:13;;;;;;;5.72;2.83;;;;;;;10.79;100.00;100060.34;4880621;29;20044;-96
2022/09/14 06:49:21;;;;;;;3.63;1.67;;;;;;;10.77;100.00;100064.09;4866287;29;20044;-96
2022/09/14 06:51:49;;;;;;;2.83;1.65;;;;;;;10.67;100.00;100051.81;4878993;29;20099;-96
2022/09/14 06:54:17;;;;;;;4.70;1.80;;;;;;;10.76;100.00;100073.03;4866241;29;20033;-96
2022/09/14 06:56:45;;;;;;;3.22;1.33;;;;;;;10.79;100.00;100075.38;4865583;29;20099;-96
2022/09/14 06:59:14;;;;;;;5.32;1.60;;;;;;;10.79;100.00;100073.56;4885188;29;20044;-96
2022/09/14 07:01:56;;;;;;;2.15;1.10;;;;;;;10.85;100.00;100071.25;4874060;29;20074;-96
2022/09/14 07:04:54;;;;;;;3.08;1.52;;;;;;;10.82;100.00;100069.75;4849839;29;20045;-96
2022/09/14 07:12:38;;;;;;;2.72;0.98;;;;;;;10.94;100.00;100075.59;4858320;29;20115;-96
2022/09/14 07:15:09;;;;;;;3.03;0.80;;;;;;;11.03;100.00;100079.16;4755775;29;20039;-96
2022/09/14 07:18:04;;;;;;;4.43;0.98;;;;;;;11.00;100.00;100075.00;4785454;29;20110;-94
2022/09/14 07:20:29;;;;;;;1.88;0.70;;;;;;;11.04;100.00;100075.50;4773021;29;20129;-93
2022/09/14 07:22:55;;;;;;;1.50;0.85;;;;;;;11.05;100.00;100077.19;4772027;29;20155;-93
2022/09/14 07:29:44;;;;;;;1.65;0.85;;;;;;;11.14;100.00;100075.41;4871159;29;20041;-93
2022/09/14 07:36:11;;;;;;;1.73;0.50;;;;;;;11.24;100.00;100078.78;4874660;29;20172;-93
2022/09/14 07:38:38;;;;;;;2.63;0.60;;;;;;;11.33;100.00;100078.78;4868530;29;20483;-92
2022/09/14 07:41:04;;;;;;;1.95;0.80;;;;;;;11.40;100.00;100077.19;4852382;29;20040;-92
2022/09/14 07:43:31;;;;;;;1.85;0.63;;;;;;;11.42;100.00;100075.19;4837425;29;20040;-93
2022/09/14 07:46:03;;;;;;;1.48;0.60;;;;;;;11.51;100.00;100082.22;4859184;29;20041;-92
2022/09/14 07:48:30;;;;;;;2.67;0.80;;;;;;;11.58;100.00;100073.63;4834651;29;20044;-93
2022/09/14 07:51:07;;;;;;;5.43;0.85;;;;;;;11.63;100.00;100074.78;4849537;29;20033;-92
2022/09/14 07:53:39;;;;;;;1.95;0.65;;;;;;;11.66;100.00;100082.41;4860489;29;20021;-93
2022/09/14 07:56:09;;;;;;;0.85;0.50;;;;;;;11.65;100.00;100082.56;4865129;29;20042;-92
2022/09/14 07:58:35;;;;;;;1.33;0.40;;;;;;;11.62;100.00;100070.50;4855043;29;21353;-93
2022/09/14 08:01:07;;;;;;;2.00;0.47;;;;;;;11.59;100.00;100078.75;4861921;29;20045;-95
2022/09/14 08:03:35;;;;;;;3.08;0.40;;;;;;;11.56;100.00;100088.81;4850769;29;20030;-95
2022/09/14 08:06:04;;;;;;;1.55;0.38;;;;;;;11.57;100.00;100082.53;4851135;29;20098;-95
2022/09/14 08:08:34;;;;;;;2.42;0.50;;;;;;;11.63;100.00;100081.88;4853239;29;20062;-96
2022/09/14 08:11:13;;;;;;;4.25;0.50;;;;;;;11.72;100.00;100088.06;4860398;29;20037;-95
2022/09/14 08:13:42;;;;;;;3.60;0.30;;;;;;;11.76;100.00;100078.78;4849943;29;20033;-94
2022/09/14 08:16:09;;;;;;;0.40;0.35;;;;;;;11.78;100.00;100088.22;4860255;29;20101;-94
2022/09/14 08:18:36;;;;;;;0.60;0.30;;;;;;;11.91;100.00;100089.59;4839899;29;20092;-94
2022/09/14 08:21:07;;;;;;;1.70;0.40;;;;;;;11.95;100.00;100093.56;4852875;29;20112;-95
2022/09/14 08:23:34;;;;;;;0.75;0.35;;;;;;;11.95;100.00;100084.78;4860766;29;20037;-95
2022/09/14 08:26:14;;;;;;;0.22;0.20;;;;;;;11.95;100.00;100087.44;4841596;29;20110;-94
2022/09/14 08:28:41;;;;;;;1.15;0.30;;;;;;;11.99;100.00;100080.84;4861308;29;20065;-96
2022/09/14 08:31:23;;;;;;;0.22;0.10;;;;;;;12.07;100.00;100083.47;4872816;29;20045;-95
2022/09/14 08:33:52;;;;;;;0.98;0.30;;;;;;;12.03;100.00;100072.41;4842630;29;20158;-94
2022/09/14 08:36:19;;;;;;;1.55;0.40;;;;;;;12.10;100.00;100083.22;4861144;29;20038;-94
2022/09/14 08:38:45;;;;;;;0.80;0.52;;;;;;;12.12;100.00;100083.88;4831027;29;20483;-94
2022/09/14 08:41:43;;;;;;;0.77;0.52;;;;;;;12.11;100.00;100086.69;4857887;29;20121;-96
2022/09/14 08:44:17;;;;;;;1.02;0.40;;;;;;;12.03;100.00;100079.53;4862962;29;20494;-95
2022/09/14 08:47:29;;;;;;;1.23;0.32;;;;;;;12.03;100.00;100090.13;4844723;29;20049;-95
2022/09/14 08:50:17;;;;;;;0.65;0.40;;;;;;;12.07;100.00;100083.47;4807362;29;20046;-94
2022/09/14 08:52:46;;;;;;;0.13;0.13;;;;;;;12.10;100.00;100090.34;4779042;29;20035;-95
2022/09/14 08:55:42;;;;;;;0.50;0.20;;;;;;;12.08;100.00;100085.19;4820739;29;20057;-96
2022/09/14 08:58:27;;;;;;;0.20;0.20;;;;;;;12.10;100.00;100083.22;4848310;29;20045;-95
2022/09/14 09:01:16;;;;;;;0.55;0.32;;;;;;;12.17;100.00;100087.88;4846066;29;20053;-95
2022/09/14 09:03:42;;;;;;;2.20;0.40;;;;;;;12.22;100.00;100086.38;4838675;29;20041;-94
2022/09/14 09:06:19;;;;;;;0.63;0.40;;;;;;;12.23;100.00;100089.84;4861579;29;20049;-95
2022/09/14 09:08:59;;;;;;;0.47;0.35;;;;;;;12.22;100.00;100082.88;4851635;29;20094;-96
2022/09/14 09:11:33;;;;;;;1.77;0.40;;;;;;;12.17;100.00;100088.66;4836655;29;20077;-95
2022/09/14 09:14:12;;;;;;;0.38;0.25;;;;;;;12.18;100.00;100090.34;4860424;29;20045;-94
2022/09/14 09:16:38;;;;;;;1.13;0.40;;;;;;;12.15;100.00;100086.19;4859406;29;20521;-95
2022/09/14 09:19:10;;;;;;;0.88;0.30;;;;;;;12.28;100.00;100091.00;4854593;29;20052;-95
2022/09/14 09:21:46;;;;;;;0.80;0.40;;;;;;;12.39;100.00;100091.69;4855844;29;20475;-96
2022/09/14 09:24:32;;;;;;;0.95;0.25;;;;;;;12.51;100.00;100106.28;4850207;29;20044;-96
2022/09/14 09:27:04;;;;;;;0.40;0.22;;;;;;;12.61;100.00;100103.44;4843680;29;20058;-96
2022/09/14 09:29:32;;;;;;;1.63;0.20;;;;;;;12.74;100.00;100099.47;4859804;29;20100;-96
2022/09/14 09:32:15;;;;;;;1.55;0.25;;;;;;;12.84;100.00;100097.47;4833424;29;20037;-94
2022/09/14 09:35:00;;;;;;;0.85;0.20;;;;;;;12.82;100.00;100104.75;4843603;29;20042;-94
2022/09/14 09:41:23;;;;;;;0.45;0.20;;;;;;;12.89;100.00;100107.56;4856657;29;20041;-95
2022/09/14 09:44:08;;;;;;;0.43;0.20;;;;;;;12.98;100.00;100105.75;4842437;29;20060;-94
2022/09/14 09:46:51;;;;;;;0.20;0.20;;;;;;;13.02;100.00;100099.09;4855881;29;20049;-94
2022/09/14 09:49:32;;;;;;;1.98;0.10;;;;;;;13.07;100.00;100109.19;4843630;29;20496;-95
2022/09/14 09:52:53;;;;;;;0.03;0.03;;;;;;;13.12;100.00;100106.88;4845636;29;20116;-95
2022/09/14 10:07:59;;;;;;;0.17;0.10;;;;;;;13.44;100.00;100102.44;4760225;30;20055;-94
2022/09/14 10:10:34;;;;;;;1.73;0.30;;;;;;;13.51;100.00;100094.66;4764821;30;20044;-95
2022/09/14 10:13:36;;;;;;;0.40;0.30;;;;;;;13.48;100.00;100094.97;4763585;30;20048;-95
2022/09/14 10:20:10;;;;;;;2.60;0.28;;;;;;;13.50;100.00;100112.44;4783615;29;20031;-95
2022/09/14 10:22:40;;;;;;;0.30;0.13;;;;;;;13.47;100.00;100109.25;4762120;29;20128;-94
2022/09/14 10:28:34;;;;;;;0.75;0.30;;;;;;;13.27;100.00;100107.81;4842024;29;20049;-95
2022/09/14 10:31:07;;;;;;;1.00;0.30;;;;;;;13.33;100.00;100114.25;4827603;29;20038;-96
2022/09/14 10:33:34;;;;;;;0.50;0.40;;;;;;;13.46;100.00;100105.75;4844402;29;20030;-96
2022/09/14 10:36:03;;;;;;;2.75;0.57;;;;;;;13.64;100.00;100108.22;4862992;29;20037;-96
2022/09/14 10:39:03;;;;;;;0.70;0.63;;;;;;;13.67;100.00;100103.53;4844439;29;20041;-96
2022/09/14 10:41:56;;;;;;;0.85;0.40;;;;;;;13.68;100.00;100108.69;4816109;29;20044;-96
2022/09/14 10:44:44;;;;;;;0.80;0.40;;;;;;;13.82;100.00;100103.66;4854247;29;20125;-96
2022/09/14 10:47:47;;;;;;;1.38;0.40;;;;;;;13.86;100.00;100110.25;4856057;29;20045;-94
2022/09/14 10:50:35;;;;;;;0.30;0.30;;;;;;;13.81;100.00;100102.81;4818889;29;20121;-95
2022/09/14 10:53:27;;;;;;;0.32;0.30;;;;;;;13.80;100.00;100111.78;4858929;29;20045;-96
2022/09/14 10:56:22;;;;;;;0.95;0.40;;;;;;;13.81;100.00;100105.47;4849784;29;20041;-95
2022/09/14 10:59:18;;;;;;;0.68;0.50;;;;;;;13.83;100.00;100115.91;4844035;29;20057;-96
2022/09/14 11:02:16;;;;;;;0.30;0.30;;;;;;;13.71;100.00;100108.34;4844948;29;20037;-96
2022/09/14 11:04:53;;;;;;;1.05;0.35;;;;;;;13.82;100.00;100108.97;4775775;29;20063;-94
2022/09/14 11:07:57;;;;;;;0.38;0.38;;;;;;;13.82;100.00;100104.47;4827217;29;20053;-96
2022/09/14 11:10:49;;;;;;;0.77;0.50;;;;;;;13.75;100.00;100108.81;4859475;29;20057;-96
2022/09/14 11:13:32;;;;;;;0.50;0.40;;;;;;;13.81;100.00;100112.63;4819384;29;20129;-96
2022/09/14 11:16:35;;;;;;;1.38;0.50;;;;;;;13.86;100.00;100110.25;4845123;29;20048;-94
2022/09/14 11:19:36;;;;;;;2.05;0.35;;;;;;;13.90;100.00;100111.59;4847688;29;20033;-96
2022/09/14 11:22:51;;;;;;;1.00;0.60;;;;;;;14.06;100.00;100120.44;4825445;29;20103;-95
2022/09/14 11:25:23;;;;;;;1.85;0.65;;;;;;;14.06;100.00;100118.63;4847000;29;20046;-96
2022/09/14 11:28:00;;;;;;;4.88;0.60;;;;;;;14.13;100.00;100124.88;4850061;29;20030;-95
2022/09/14 11:31:12;;;;;;;;;;;;;;;;;;;;;
2022/09/14 11:34:26;;;;;;;2.03;0.43;;;;;;;14.09;100.00;100115.63;4839684;29;20097;-94
2022/09/14 11:37:02;;;;;;;2.05;0.50;;;;;;;14.12;100.00;100122.41;4841045;29;20135;-96
2022/09/14 11:40:09;;;;;;;1.38;0.40;;;;;;;14.10;100.00;100127.06;4797325;29;20066;-94
2022/09/14 11:42:50;;;;;;;0.47;0.45;;;;;;;14.10;100.00;100127.91;4836934;29;20117;-96
2022/09/14 11:45:40;;;;;;;2.30;0.80;;;;;;;14.13;100.00;100129.38;4839087;29;20124;-96
2022/09/14 11:48:28;;;;;;;0.45;0.30;;;;;;;14.11;100.00;100132.19;4843726;29;20543;-96
2022/09/14 11:51:16;;;;;;;2.65;0.63;;;;;;;14.01;100.00;100137.72;4852969;29;20035;-95
2022/09/14 11:53:50;;;;;;;2.85;0.57;;;;;;;14.06;100.00;100147.03;4847073;29;20125;-96
2022/09/14 11:56:25;;;;;;;2.78;0.73;;;;;;;14.06;100.00;100150.53;4862000;29;20120;-96
2022/09/14 11:58:54;;;;;;;4.40;0.73;;;;;;;14.01;100.00;100143.03;4857151;29;20034;-95
2022/09/14 12:01:38;;;;;;;4.47;0.93;;;;;;;14.05;100.00;100153.34;4845665;29;20113;-96
2022/09/14 12:04:18;;;;;;;6.18;1.15;;;;;;;14.04;100.00;100146.38;4847316;29;20034;-95
2022/09/14 12:06:47;;;;;;;3.47;1.17;;;;;;;14.13;100.00;100143.50;4866962;29;20077;-95
2022/09/14 12:09:52;;;;;;;7.75;2.67;;;;;;;14.31;98.82;100142.38;4852634;29;20145;-96
2022/09/14 12:12:37;;;;;;;7.88;1.48;;;;;;;14.54;98.27;100151.38;4854938;29;20036;-96
2022/09/14 12:15:25;;;;;;;7.65;1.60;;;;;;;14.70;97.39;100147.75;4839875;29;20040;-94
2022/09/14 12:18:06;;;;;;;9.63;2.15;;;;;;;14.76;94.93;100136.41;4862358;29;20069;-94
2022/09/14 12:20:39;;;;;;;7.55;2.00;;;;;;;14.78;94.87;100144.19;4860984;29;20115;-94
2022/09/14 12:23:23;;;;;;;8.98;1.60;;;;;;;14.76;93.64;100149.72;4826889;29;20504;-95
2022/09/14 12:26:05;;;;;;;9.45;1.98;;;;;;;14.72;92.80;100135.94;4847338;29;20065;-94
2022/09/14 12:28:34;;;;;;;7.85;2.08;;;;;;;14.71;92.89;100136.94;4856820;29;20033;-95